Time;durP1;ratioP1;P1;durP2;ratioP2;P2;SDS_P1;SDS_P2;PMS_P1;PMS_P2;Temp;Humidity;BMP_temperature;BMP_pressure;BME280_temperature;BME280_humidity;BME280_pressure;Samples;Min_cycle;Max_cycle;Signal;HPM_P1;HPM_P2
2023/09/04 00:00:55;;;;;;;85.63;81.93;;;;;;;;;;5049828;28;20431;-44
2023/09/04 00:03:23;;;;;;;81.47;77.87;;;;;;;;;;5047280;28;20483;-42
2023/09/04 00:05:50;;;;;;;84.73;81.20;;;;;;;;;;5044367;28;20455;-40
2023/09/04 00:08:18;;;;;;;81.00;77.70;;;;;;;;;;5052771;28;20996;-39
2023/09/04 00:10:46;;;;;;;90.20;86.20;;;;;;;;;;5070575;28;20866;-41
2023/09/04 00:13:13;;;;;;;88.33;84.80;;;;;;;;;;5072556;28;20857;-40
2023/09/04 00:15:42;;;;;;;84.13;80.83;;;;;;;;;;5062968;28;20486;-40
2023/09/04 00:18:09;;;;;;;88.57;84.93;;;;;;;;;;5052788;28;20435;-42
2023/09/04 00:20:37;;;;;;;87.07;83.63;;;;;;;;;;5044308;28;20443;-39
2023/09/04 00:23:04;;;;;;;85.33;81.97;;;;;;;;;;5044230;28;20439;-39
2023/09/04 00:25:32;;;;;;;91.23;87.73;;;;;;;;;;5051948;28;20462;-41
2023/09/04 00:27:59;;;;;;;90.30;86.20;;;;;;;;;;5069467;28;20566;-41
2023/09/04 00:30:30;;;;;;;87.40;83.80;;;;;;;;;;5052403;28;20470;-40
2023/09/04 00:32:58;;;;;;;88.90;85.17;;;;;;;;;;5071452;28;20434;-40
2023/09/04 00:35:26;;;;;;;94.57;90.50;;;;;;;;;;5064820;28;20990;-39
2023/09/04 00:37:54;;;;;;;89.27;85.40;;;;;;;;;;5050520;28;20432;-39
2023/09/04 00:40:22;;;;;;;90.40;86.70;;;;;;;;;;5046574;28;20542;-39
2023/09/04 00:42:49;;;;;;;88.17;84.67;;;;;;;;;;5051946;28;20432;-41
2023/09/04 00:45:17;;;;;;;92.13;88.33;;;;;;;;;;5046658;28;20555;-42
2023/09/04 00:47:45;;;;;;;90.57;86.53;;;;;;;;;;5049536;28;20435;-40
2023/09/04 00:50:15;;;;;;;94.07;89.97;;;;;;;;;;5051905;28;20497;-43
2023/09/04 00:52:43;;;;;;;95.70;91.47;;;;;;;;;;5052009;28;20435;-39
2023/09/04 00:55:11;;;;;;;91.77;87.50;;;;;;;;;;5051588;28;20513;-44
2023/09/04 00:57:39;;;;;;;93.13;88.83;;;;;;;;;;5051916;28;20446;-39
2023/09/04 01:00:10;;;;;;;94.97;90.77;;;;;;;;;;5024300;28;20947;-43
2023/09/04 01:02:39;;;;;;;93.47;89.07;;;;;;;;;;5039896;28;20443;-41
2023/09/04 01:05:06;;;;;;;92.60;88.40;;;;;;;;;;5035425;28;20494;-40
2023/09/04 01:07:37;;;;;;;95.63;91.20;;;;;;;;;;5051804;28;20432;-39
2023/09/04 01:10:07;;;;;;;104.47;99.93;;;;;;;;;;5051738;28;20911;-43
2023/09/04 01:12:40;;;;;;;97.57;92.97;;;;;;;;;;5044278;28;20439;-42
2023/09/04 01:15:09;;;;;;;105.57;100.77;;;;;;;;;;5043465;28;20542;-45
2023/09/04 01:17:37;;;;;;;97.60;93.10;;;;;;;;;;5051995;28;20597;-45
2023/09/04 01:20:26;;;;;;;101.10;96.50;;;;;;;;;;5051677;28;20446;-43
2023/09/04 01:22:55;;;;;;;103.60;98.30;;;;;;;;;;5041539;28;21062;-46
2023/09/04 01:25:23;;;;;;;101.00;96.00;;;;;;;;;;5051422;28;20487;-40
2023/09/04 01:28:09;;;;;;;99.87;95.17;;;;;;;;;;5051788;28;20474;-40
2023/09/04 01:30:44;;;;;;;100.77;95.57;;;;;;;;;;5051320;28;20438;-39
2023/09/04 01:33:14;;;;;;;104.03;98.53;;;;;;;;;;5036657;28;20438;-41
2023/09/04 01:35:43;;;;;;;107.57;102.57;;;;;;;;;;5051089;28;21016;-39
2023/09/04 01:38:12;;;;;;;102.97;97.93;;;;;;;;;;5027633;28;20466;-45
2023/09/04 01:40:39;;;;;;;105.90;100.50;;;;;;;;;;5051441;28;20918;-41
2023/09/04 01:43:06;;;;;;;104.90;98.90;;;;;;;;;;5051015;28;20863;-42
2023/09/04 01:45:34;;;;;;;107.47;102.27;;;;;;;;;;5050806;28;20455;-39
2023/09/04 01:48:01;;;;;;;105.60;99.97;;;;;;;;;;5051296;28;20442;-40
2023/09/04 01:50:29;;;;;;;107.27;101.57;;;;;;;;;;5036685;28;20875;-40
2023/09/04 01:52:56;;;;;;;109.57;103.87;;;;;;;;;;5041131;28;20518;-41
2023/09/04 01:55:25;;;;;;;107.80;102.30;;;;;;;;;;5043482;28;20546;-40
2023/09/04 01:57:53;;;;;;;110.83;104.70;;;;;;;;;;5068938;28;20466;-40
2023/09/04 02:00:20;;;;;;;103.87;98.67;;;;;;;;;;5070825;28;20430;-39
2023/09/04 02:02:47;;;;;;;99.90;95.10;;;;;;;;;;5070804;28;20430;-41
2023/09/04 02:05:15;;;;;;;101.27;96.37;;;;;;;;;;5060457;28;20468;-39
2023/09/04 02:07:43;;;;;;;96.33;91.83;;;;;;;;;;5039164;28;20439;-43
2023/09/04 02:10:10;;;;;;;102.77;97.30;;;;;;;;;;5050873;28;20505;-45
2023/09/04 02:12:39;;;;;;;102.87;97.90;;;;;;;;;;5050530;28;21002;-43
2023/09/04 02:15:07;;;;;;;105.27;100.27;;;;;;;;;;5038761;28;20470;-40
2023/09/04 02:17:35;;;;;;;100.03;95.20;;;;;;;;;;5046188;28;20464;-42
2023/09/04 02:20:03;;;;;;;103.03;97.93;;;;;;;;;;5042305;28;20962;-40
2023/09/04 02:22:32;;;;;;;106.10;99.90;;;;;;;;;;5044307;28;20432;-39
2023/09/04 02:24:59;;;;;;;107.30;102.17;;;;;;;;;;5048999;28;20462;-39
2023/09/04 02:27:27;;;;;;;100.27;95.17;;;;;;;;;;5045143;28;20454;-39
2023/09/04 02:29:55;;;;;;;99.57;94.93;;;;;;;;;;5048766;28;20475;-42
2023/09/04 02:32:23;;;;;;;108.77;103.00;;;;;;;;;;5042796;28;20457;-40
2023/09/04 02:34:50;;;;;;;112.60;107.00;;;;;;;;;;5049401;28;20461;-39
2023/09/04 02:37:18;;;;;;;108.70;103.73;;;;;;;;;;5043563;28;20432;-39
2023/09/04 02:39:45;;;;;;;103.67;97.97;;;;;;;;;;5050586;28;20439;-43
2023/09/04 02:42:13;;;;;;;104.50;99.50;;;;;;;;;;5031170;28;20923;-39
2023/09/04 02:44:40;;;;;;;101.37;96.37;;;;;;;;;;5039275;28;20483;-42
2023/09/04 02:47:09;;;;;;;105.63;99.87;;;;;;;;;;5061835;28;20545;-41
2023/09/04 02:49:36;;;;;;;100.80;95.47;;;;;;;;;;5070520;28;20465;-39
2023/09/04 02:52:04;;;;;;;96.30;91.63;;;;;;;;;;5051311;28;20860;-39
2023/09/04 02:54:32;;;;;;;103.03;97.60;;;;;;;;;;5050699;28;20897;-40
2023/09/04 02:56:59;;;;;;;105.07;99.60;;;;;;;;;;5050060;28;20461;-41
2023/09/04 02:59:27;;;;;;;100.90;96.00;;;;;;;;;;5050728;28;20526;-42
2023/09/04 03:01:54;;;;;;;101.57;96.73;;;;;;;;;;5067072;28;20448;-40
2023/09/04 03:04:23;;;;;;;95.00;90.40;;;;;;;;;;5058644;28;20846;-42
2023/09/04 03:06:51;;;;;;;101.40;96.73;;;;;;;;;;5067197;28;20458;-41
2023/09/04 03:09:18;;;;;;;100.87;95.97;;;;;;;;;;5070445;28;20470;-45
2023/09/04 03:11:46;;;;;;;102.10;97.40;;;;;;;;;;5071139;28;20440;-42
2023/09/04 03:14:15;;;;;;;97.53;93.10;;;;;;;;;;5070263;28;20549;-41
2023/09/04 03:16:43;;;;;;;101.30;96.63;;;;;;;;;;5053543;28;20505;-39
2023/09/04 03:19:10;;;;;;;98.37;93.57;;;;;;;;;;5053829;28;20455;-40
2023/09/04 03:21:39;;;;;;;102.97;97.67;;;;;;;;;;5053841;28;20446;-39
2023/09/04 03:24:07;;;;;;;95.90;91.40;;;;;;;;;;5056184;28;20843;-41
2023/09/04 03:26:34;;;;;;;99.70;95.20;;;;;;;;;;5048866;28;20458;-40
2023/09/04 03:29:02;;;;;;;104.17;99.60;;;;;;;;;;5045579;28;20431;-40
2023/09/04 03:31:29;;;;;;;105.17;100.23;;;;;;;;;;5053771;28;20452;-39
2023/09/04 03:33:57;;;;;;;109.30;104.30;;;;;;;;;;5053575;28;20524;-41
2023/09/04 03:36:24;;;;;;;105.20;100.10;;;;;;;;;;5048597;28;20813;-40
2023/09/04 03:38:53;;;;;;;113.23;107.73;;;;;;;;;;5042431;28;20439;-40
2023/09/04 03:41:20;;;;;;;104.53;99.80;;;;;;;;;;5053649;28;20434;-39
2023/09/04 03:43:48;;;;;;;109.77;104.47;;;;;;;;;;5045016;28;20545;-40
2023/09/04 03:46:15;;;;;;;105.13;100.53;;;;;;;;;;5044422;28;21190;-39
2023/09/04 03:48:43;;;;;;;110.87;105.53;;;;;;;;;;5037493;28;20963;-42
2023/09/04 03:51:10;;;;;;;106.37;101.03;;;;;;;;;;5049986;28;20891;-39
2023/09/04 03:53:38;;;;;;;103.27;98.27;;;;;;;;;;5041561;28;20823;-39
2023/09/04 03:56:07;;;;;;;105.73;100.57;;;;;;;;;;5043692;28;20893;-40
2023/09/04 03:58:34;;;;;;;107.63;102.70;;;;;;;;;;5053252;28;20927;-43
2023/09/04 04:01:03;;;;;;;102.40;97.67;;;;;;;;;;5044962;28;20435;-39
2023/09/04 04:03:31;;;;;;;111.00;105.67;;;;;;;;;;5053121;28;20451;-41
2023/09/04 04:05:59;;;;;;;105.13;99.73;;;;;;;;;;5051534;28;20545;-39
2023/09/04 04:08:26;;;;;;;120.47;110.77;;;;;;;;;;5046305;28;20966;-42
2023/09/04 04:10:57;;;;;;;121.87;109.43;;;;;;;;;;5052794;28;20475;-41
2023/09/04 04:13:26;;;;;;;110.80;104.40;;;;;;;;;;5047668;28;20916;-40
2023/09/04 04:15:57;;;;;;;107.37;101.47;;;;;;;;;;5049542;28;20459;-40
2023/09/04 04:18:24;;;;;;;112.10;105.37;;;;;;;;;;5053012;28;20434;-39
2023/09/04 04:20:53;;;;;;;123.10;113.53;;;;;;;;;;5052912;28;20438;-40
2023/09/04 04:23:20;;;;;;;128.73;115.80;;;;;;;;;;5044298;28;20564;-39
2023/09/04 04:25:48;;;;;;;121.33;111.30;;;;;;;;;;5048437;28;20459;-39
2023/09/04 04:28:15;;;;;;;126.73;119.57;;;;;;;;;;5036464;28;20442;-44
2023/09/04 04:30:44;;;;;;;135.20;122.50;;;;;;;;;;5052662;28;20562;-39
2023/09/04 04:33:12;;;;;;;130.70;123.20;;;;;;;;;;5044299;28;20522;-39
2023/09/04 04:35:40;;;;;;;158.50;132.77;;;;;;;;;;5052282;28;20581;-40
2023/09/04 04:38:07;;;;;;;133.77;122.67;;;;;;;;;;5035891;28;20475;-43
2023/09/04 04:40:36;;;;;;;126.20;118.90;;;;;;;;;;5052266;28;20427;-39
2023/09/04 04:43:04;;;;;;;120.63;114.20;;;;;;;;;;5043952;28;20459;-40
2023/09/04 04:45:32;;;;;;;164.97;126.77;;;;;;;;;;5051734;28;20458;-41
2023/09/04 04:48:03;;;;;;;132.87;123.30;;;;;;;;;;5072234;28;20434;-40
2023/09/04 04:50:31;;;;;;;125.37;118.37;;;;;;;;;;5063979;28;20550;-39
2023/09/04 04:52:58;;;;;;;121.27;115.33;;;;;;;;;;5062485;28;20864;-40
2023/09/04 04:55:26;;;;;;;128.43;121.40;;;;;;;;;;5057691;28;20866;-44
2023/09/04 04:57:53;;;;;;;152.83;130.63;;;;;;;;;;5052079;28;20973;-39
2023/09/04 05:00:21;;;;;;;133.17;122.80;;;;;;;;;;5052287;28;20435;-39
2023/09/04 05:02:48;;;;;;;123.03;115.47;;;;;;;;;;5051802;28;20500;-44
2023/09/04 05:05:17;;;;;;;132.53;122.30;;;;;;;;;;5047989;28;20475;-40
2023/09/04 05:07:45;;;;;;;120.50;113.63;;;;;;;;;;5047513;28;20435;-39
2023/09/04 05:10:13;;;;;;;124.27;117.73;;;;;;;;;;5049095;28;20538;-40
2023/09/04 05:12:40;;;;;;;131.87;124.63;;;;;;;;;;5046187;28;20535;-43
2023/09/04 05:15:08;;;;;;;126.47;119.50;;;;;;;;;;5051173;28;20465;-40
2023/09/04 05:17:35;;;;;;;130.60;123.53;;;;;;;;;;5051558;28;20441;-39
2023/09/04 05:20:05;;;;;;;140.10;128.07;;;;;;;;;;5050197;28;20986;-40
2023/09/04 05:22:34;;;;;;;128.67;123.27;;;;;;;;;;5039849;28;20932;-39
2023/09/04 05:25:02;;;;;;;129.63;123.80;;;;;;;;;;5043163;28;20546;-39
2023/09/04 05:27:30;;;;;;;139.93;132.00;;;;;;;;;;5059767;28;21014;-41
2023/09/04 05:29:57;;;;;;;139.03;132.60;;;;;;;;;;5068535;28;20434;-41
2023/09/04 05:32:25;;;;;;;135.43;128.23;;;;;;;;;;5066962;28;20525;-41
2023/09/04 05:34:53;;;;;;;135.07;129.33;;;;;;;;;;5050105;28;20459;-41
2023/09/04 05:37:21;;;;;;;149.47;140.60;;;;;;;;;;5043244;28;20467;-41
2023/09/04 05:39:51;;;;;;;133.07;127.57;;;;;;;;;;5067383;28;20435;-40
2023/09/04 05:42:18;;;;;;;145.03;137.77;;;;;;;;;;5068096;28;20427;-40
2023/09/04 05:44:45;;;;;;;134.73;128.97;;;;;;;;;;5050554;28;20530;-42
2023/09/04 05:47:13;;;;;;;144.17;137.00;;;;;;;;;;5050919;28;20887;-41
2023/09/04 05:49:40;;;;;;;155.63;145.60;;;;;;;;;;5057876;28;20434;-42
2023/09/04 05:52:08;;;;;;;144.83;137.47;;;;;;;;;;5071114;28;20508;-40
2023/09/04 05:54:35;;;;;;;139.73;133.90;;;;;;;;;;5056645;28;20508;-44
2023/09/04 05:57:05;;;;;;;139.00;133.73;;;;;;;;;;5051068;28;20518;-41
2023/09/04 05:59:32;;;;;;;150.17;142.33;;;;;;;;;;5064537;28;20461;-41
2023/09/04 06:02:00;;;;;;;137.83;131.73;;;;;;;;;;5070832;28;20924;-40
2023/09/04 06:04:27;;;;;;;134.53;129.20;;;;;;;;;;5070750;28;20525;-42
2023/09/04 06:06:55;;;;;;;126.50;121.60;;;;;;;;;;5042851;28;20463;-43
2023/09/04 06:09:22;;;;;;;135.50;129.90;;;;;;;;;;5035225;28;20431;-45
2023/09/04 06:11:50;;;;;;;136.97;131.30;;;;;;;;;;5043306;28;20563;-44
2023/09/04 06:14:19;;;;;;;137.03;130.07;;;;;;;;;;5038701;28;20546;-42
2023/09/04 06:16:46;;;;;;;140.90;135.50;;;;;;;;;;5055661;28;20454;-41
2023/09/04 06:19:14;;;;;;;138.20;132.37;;;;;;;;;;5070810;28;20441;-43
2023/09/04 06:21:41;;;;;;;127.53;122.60;;;;;;;;;;5070926;28;20521;-40
2023/09/04 06:24:09;;;;;;;115.87;111.17;;;;;;;;;;5052474;28;20476;-43
2023/09/04 06:26:36;;;;;;;117.43;112.70;;;;;;;;;;5050574;28;20481;-41
2023/09/04 06:29:04;;;;;;;104.83;100.83;;;;;;;;;;5050713;28;20925;-41
2023/09/04 06:31:32;;;;;;;94.17;90.57;;;;;;;;;;5051018;28;20501;-42
2023/09/04 06:34:03;;;;;;;98.43;94.27;;;;;;;;;;5059225;28;20477;-46
2023/09/04 06:36:30;;;;;;;100.90;97.00;;;;;;;;;;5054445;28;20842;-41
2023/09/04 06:38:58;;;;;;;97.73;93.67;;;;;;;;;;5042376;28;20430;-41
2023/09/04 06:41:25;;;;;;;100.40;96.13;;;;;;;;;;5050575;28;20431;-45
2023/09/04 06:43:53;;;;;;;92.57;88.97;;;;;;;;;;5050587;28;20499;-43
2023/09/04 06:46:20;;;;;;;89.50;85.40;;;;;;;;;;5050077;28;21023;-43
2023/09/04 06:48:49;;;;;;;88.80;85.20;;;;;;;;;;5054562;28;20435;-41
2023/09/04 06:51:17;;;;;;;87.87;84.27;;;;;;;;;;5054373;28;20561;-44
2023/09/04 06:53:44;;;;;;;87.90;84.20;;;;;;;;;;5054018;28;20512;-45
2023/09/04 06:56:12;;;;;;;89.37;84.67;;;;;;;;;;5053930;28;20554;-42
2023/09/04 06:58:39;;;;;;;85.13;81.20;;;;;;;;;;5054505;28;20458;-42
2023/09/04 07:01:07;;;;;;;85.87;81.97;;;;;;;;;;5054396;28;20439;-43
2023/09/04 07:03:34;;;;;;;83.67;80.13;;;;;;;;;;5054160;28;20542;-43
2023/09/04 07:06:03;;;;;;;80.53;76.97;;;;;;;;;;5045391;28;20461;-45
2023/09/04 07:08:31;;;;;;;84.40;80.93;;;;;;;;;;5054047;28;20914;-44
2023/09/04 07:10:59;;;;;;;74.70;71.23;;;;;;;;;;5054162;28;20435;-42
2023/09/04 07:13:26;;;;;;;74.57;71.37;;;;;;;;;;5053841;28;20836;-41
2023/09/04 07:15:53;;;;;;;74.17;70.47;;;;;;;;;;5053770;28;20486;-41
2023/09/04 07:18:21;;;;;;;76.20;72.60;;;;;;;;;;5045725;28;20466;-43
2023/09/04 07:20:48;;;;;;;71.37;67.80;;;;;;;;;;5053984;28;20431;-40
2023/09/04 07:23:18;;;;;;;72.33;68.17;;;;;;;;;;5040027;28;20439;-41
2023/09/04 07:25:49;;;;;;;70.93;67.00;;;;;;;;;;5053820;28;20458;-40
2023/09/04 07:28:18;;;;;;;76.90;72.60;;;;;;;;;;5053927;28;20438;-41
2023/09/04 07:30:46;;;;;;;67.27;64.00;;;;;;;;;;5053719;28;20438;-42
2023/09/04 07:33:13;;;;;;;66.17;63.03;;;;;;;;;;5053286;28;20506;-41
2023/09/04 07:35:41;;;;;;;63.57;60.47;;;;;;;;;;5053325;28;20462;-41
2023/09/04 07:38:09;;;;;;;62.13;58.97;;;;;;;;;;5053559;28;20438;-42
2023/09/04 07:40:37;;;;;;;58.60;55.33;;;;;;;;;;5048764;28;20862;-41
2023/09/04 07:43:06;;;;;;;62.17;58.90;;;;;;;;;;5050375;28;20518;-44
2023/09/04 07:45:34;;;;;;;60.87;57.33;;;;;;;;;;5053194;28;20897;-41
2023/09/04 07:48:02;;;;;;;54.50;51.40;;;;;;;;;;5053204;28;20446;-42
2023/09/04 07:50:30;;;;;;;55.10;52.00;;;;;;;;;;5053625;28;20431;-43
2023/09/04 07:52:57;;;;;;;52.43;49.73;;;;;;;;;;5053183;28;20915;-43
2023/09/04 07:55:24;;;;;;;56.63;53.53;;;;;;;;;;5044486;28;20463;-40
2023/09/04 07:57:53;;;;;;;58.50;55.00;;;;;;;;;;5052948;28;20806;-41
2023/09/04 08:00:21;;;;;;;55.47;52.27;;;;;;;;;;5053233;28;20437;-42
2023/09/04 08:02:50;;;;;;;52.30;49.60;;;;;;;;;;5053212;28;20443;-41
2023/09/04 08:05:17;;;;;;;53.37;50.40;;;;;;;;;;5052587;28;20459;-43
2023/09/04 08:07:45;;;;;;;55.70;52.50;;;;;;;;;;5053385;28;20846;-44
2023/09/04 08:10:13;;;;;;;56.03;52.87;;;;;;;;;;5053083;28;20510;-42
2023/09/04 08:12:40;;;;;;;50.53;47.63;;;;;;;;;;5044445;28;20977;-42
2023/09/04 08:15:10;;;;;;;51.10;48.30;;;;;;;;;;5048835;28;20464;-40
2023/09/04 08:17:38;;;;;;;55.00;51.83;;;;;;;;;;5073109;28;20438;-45
2023/09/04 08:20:06;;;;;;;50.77;48.00;;;;;;;;;;5072741;28;20522;-42
2023/09/04 08:22:34;;;;;;;50.90;48.00;;;;;;;;;;5068381;28;20526;-44
2023/09/04 08:25:01;;;;;;;56.80;53.97;;;;;;;;;;5052388;28;20930;-41
2023/09/04 08:27:29;;;;;;;49.30;46.60;;;;;;;;;;5052660;28;21004;-43
2023/09/04 08:29:56;;;;;;;55.40;52.40;;;;;;;;;;5052753;28;20493;-41
2023/09/04 08:32:25;;;;;;;53.13;50.33;;;;;;;;;;5052466;28;20481;-41
2023/09/04 08:34:52;;;;;;;55.80;52.90;;;;;;;;;;5051770;28;20822;-40
2023/09/04 08:37:20;;;;;;;61.10;57.70;;;;;;;;;;5052576;28;20445;-45
2023/09/04 08:39:48;;;;;;;59.47;56.37;;;;;;;;;;5052366;28;21151;-40
2023/09/04 08:42:16;;;;;;;60.60;57.40;;;;;;;;;;5052285;28;20522;-40
2023/09/04 08:44:44;;;;;;;55.83;52.93;;;;;;;;;;5052005;28;20463;-41
2023/09/04 08:47:12;;;;;;;59.53;56.50;;;;;;;;;;5070153;28;20889;-42
2023/09/04 08:49:41;;;;;;;51.77;49.20;;;;;;;;;;5059246;28;20431;-43
2023/09/04 08:52:09;;;;;;;53.83;51.03;;;;;;;;;;5068709;28;20774;-42
2023/09/04 08:54:36;;;;;;;51.07;48.17;;;;;;;;;;5055700;28;20528;-41
2023/09/04 08:57:04;;;;;;;50.37;47.67;;;;;;;;;;5044163;28;20529;-43
2023/09/04 08:59:32;;;;;;;48.33;45.87;;;;;;;;;;5028278;28;21020;-41
2023/09/04 09:02:03;;;;;;;47.67;45.27;;;;;;;;;;5052319;28;20864;-43
2023/09/04 09:04:31;;;;;;;41.57;39.47;;;;;;;;;;5043802;28;20455;-43
2023/09/04 09:07:00;;;;;;;42.13;40.13;;;;;;;;;;5051569;28;21019;-43
2023/09/04 09:09:28;;;;;;;43.10;41.10;;;;;;;;;;5048141;28;20439;-44
2023/09/04 09:11:55;;;;;;;45.20;43.00;;;;;;;;;;5047243;28;20517;-41
2023/09/04 09:14:26;;;;;;;40.53;38.63;;;;;;;;;;5051279;28;20553;-40
2023/09/04 09:17:02;;;;;;;43.47;41.30;;;;;;;;;;5051508;28;20469;-42
2023/09/04 09:19:31;;;;;;;39.27;37.57;;;;;;;;;;5051684;28;20457;-44
2023/09/04 09:22:10;;;;;;;38.33;36.53;;;;;;;;;;5044214;28;20539;-41
2023/09/04 09:24:48;;;;;;;34.17;32.40;;;;;;;;;;5051293;28;20542;-43
2023/09/04 09:27:17;;;;;;;34.10;32.70;;;;;;;;;;5043494;28;20531;-41
2023/09/04 09:29:45;;;;;;;34.73;32.90;;;;;;;;;;5051608;28;21100;-47
2023/09/04 09:32:13;;;;;;;34.43;32.83;;;;;;;;;;5051331;28;20473;-44
2023/09/04 09:34:40;;;;;;;31.00;29.53;;;;;;;;;;5051143;28;20553;-43
2023/09/04 09:37:08;;;;;;;28.00;26.80;;;;;;;;;;5051547;28;20430;-43
2023/09/04 09:39:37;;;;;;;24.03;23.10;;;;;;;;;;5051416;28;20940;-41
2023/09/04 09:42:04;;;;;;;23.90;23.00;;;;;;;;;;5043522;28;20438;-44
2023/09/04 09:44:32;;;;;;;21.87;20.97;;;;;;;;;;5042834;28;20473;-40
2023/09/04 09:46:59;;;;;;;21.33;20.43;;;;;;;;;;5050895;28;20540;-41
2023/09/04 09:49:27;;;;;;;21.07;20.17;;;;;;;;;;5051560;28;20473;-45
2023/09/04 09:51:55;;;;;;;18.43;17.47;;;;;;;;;;5051241;28;20466;-43
2023/09/04 09:54:35;;;;;;;15.57;14.87;;;;;;;;;;5034492;28;20501;-46
2023/09/04 09:57:07;;;;;;;14.77;14.00;;;;;;;;;;5041797;28;20787;-42
2023/09/04 09:59:35;;;;;;;14.63;13.80;;;;;;;;;;5023566;28;20467;-42
2023/09/04 10:02:04;;;;;;;15.90;15.10;;;;;;;;;;5047038;28;20473;-45
2023/09/04 10:04:32;;;;;;;17.37;16.47;;;;;;;;;;5050817;28;20446;-42
2023/09/04 10:07:00;;;;;;;17.17;16.07;;;;;;;;;;5050775;28;20462;-41
2023/09/04 10:09:28;;;;;;;14.27;13.60;;;;;;;;;;5051041;28;20435;-43
2023/09/04 10:12:00;;;;;;;16.50;15.60;;;;;;;;;;5050812;28;20522;-42
2023/09/04 10:14:32;;;;;;;15.30;14.30;;;;;;;;;;5050462;28;20478;-40
2023/09/04 10:17:00;;;;;;;14.40;13.60;;;;;;;;;;5050649;28;20465;-41
2023/09/04 10:19:30;;;;;;;13.77;12.97;;;;;;;;;;5048404;28;20579;-42
2023/09/04 10:22:00;;;;;;;12.97;12.27;;;;;;;;;;5050409;28;20798;-41
2023/09/04 10:24:31;;;;;;;11.50;11.00;;;;;;;;;;5039927;28;20538;-41
2023/09/04 10:27:01;;;;;;;10.33;9.83;;;;;;;;;;5052235;28;21080;-44
2023/09/04 10:29:31;;;;;;;8.67;8.17;;;;;;;;;;5057481;28;20450;-42
2023/09/04 10:32:00;;;;;;;7.63;7.33;;;;;;;;;;5057377;28;20435;-44
2023/09/04 10:34:27;;;;;;;8.00;7.50;;;;;;;;;;5038105;28;20475;-41
2023/09/04 10:36:55;;;;;;;8.37;7.97;;;;;;;;;;5036927;28;20522;-41
2023/09/04 10:39:22;;;;;;;8.07;7.67;;;;;;;;;;5037521;28;20578;-42
2023/09/04 10:41:50;;;;;;;7.53;7.03;;;;;;;;;;5037626;28;20435;-43
2023/09/04 10:44:32;;;;;;;7.10;6.70;;;;;;;;;;5037113;28;21022;-41
2023/09/04 10:47:01;;;;;;;7.40;7.00;;;;;;;;;;5037426;28;20462;-44
2023/09/04 10:49:32;;;;;;;7.37;6.77;;;;;;;;;;5037333;28;20539;-41
2023/09/04 10:51:59;;;;;;;5.47;5.10;;;;;;;;;;5044460;28;20434;-42
2023/09/04 10:54:27;;;;;;;5.60;5.30;;;;;;;;;;5057161;28;20482;-44
2023/09/04 10:56:55;;;;;;;5.83;5.53;;;;;;;;;;5056919;28;20458;-44
2023/09/04 10:59:23;;;;;;;4.93;4.63;;;;;;;;;;5057210;28;20431;-42
2023/09/04 11:01:50;;;;;;;4.60;4.30;;;;;;;;;;5048787;28;20445;-44
2023/09/04 11:04:32;;;;;;;5.10;4.80;;;;;;;;;;5048783;28;20485;-43
2023/09/04 11:07:25;;;;;;;5.27;4.97;;;;;;;;;;5042049;28;20435;-41
2023/09/04 11:09:53;;;;;;;4.27;4.07;;;;;;;;;;5031254;28;20858;-45
2023/09/04 11:12:22;;;;;;;4.30;4.10;;;;;;;;;;5036965;28;21036;-41
2023/09/04 11:14:52;;;;;;;4.60;4.30;;;;;;;;;;5036263;28;20478;-41
2023/09/04 11:17:21;;;;;;;4.83;4.43;;;;;;;;;;5037671;28;20514;-43
2023/09/04 11:19:51;;;;;;;4.00;3.80;;;;;;;;;;5037155;28;20958;-42
2023/09/04 11:22:20;;;;;;;4.70;4.50;;;;;;;;;;5036942;28;20470;-41
2023/09/04 11:24:49;;;;;;;4.47;4.07;;;;;;;;;;5029922;28;20447;-44
2023/09/04 11:27:17;;;;;;;4.47;4.27;;;;;;;;;;5037149;28;20522;-41
2023/09/04 11:29:44;;;;;;;3.90;3.60;;;;;;;;;;5037159;28;20431;-41
2023/09/04 11:32:12;;;;;;;4.40;4.10;;;;;;;;;;5035982;28;20432;-41
2023/09/04 11:34:42;;;;;;;4.70;4.40;;;;;;;;;;5025160;28;20503;-44
2023/09/04 11:37:11;;;;;;;4.30;4.10;;;;;;;;;;5033819;28;20485;-43
2023/09/04 11:39:51;;;;;;;4.53;4.33;;;;;;;;;;5034004;28;20432;-45
2023/09/04 11:42:19;;;;;;;4.20;4.00;;;;;;;;;;5033860;28;20440;-42
2023/09/04 11:44:48;;;;;;;6.27;4.40;;;;;;;;;;5034778;28;20490;-42
2023/09/04 11:47:15;;;;;;;4.97;4.50;;;;;;;;;;5053588;28;20431;-41
2023/09/04 11:49:43;;;;;;;5.97;4.53;;;;;;;;;;5053353;28;20835;-43
2023/09/04 11:52:12;;;;;;;4.17;3.97;;;;;;;;;;5053585;28;20431;-44
2023/09/04 11:54:40;;;;;;;4.97;4.70;;;;;;;;;;5052794;28;20974;-44
2023/09/04 11:57:09;;;;;;;4.43;4.10;;;;;;;;;;5053470;28;20526;-45
2023/09/04 11:59:36;;;;;;;4.40;4.20;;;;;;;;;;5053434;28;20427;-41
2023/09/04 12:02:04;;;;;;;5.50;5.10;;;;;;;;;;5053117;28;20427;-43
2023/09/04 12:04:32;;;;;;;5.77;5.33;;;;;;;;;;5053254;28;20486;-41
2023/09/04 12:07:00;;;;;;;4.87;4.47;;;;;;;;;;5052921;28;20561;-42
2023/09/04 12:09:29;;;;;;;6.63;4.57;;;;;;;;;;5053156;28;20465;-41
2023/09/04 12:11:57;;;;;;;5.47;5.17;;;;;;;;;;5052999;28;20437;-48
2023/09/04 12:14:24;;;;;;;4.90;4.60;;;;;;;;;;5052442;28;20517;-42
2023/09/04 12:16:52;;;;;;;5.60;5.30;;;;;;;;;;5052602;28;20450;-45
2023/09/04 12:19:21;;;;;;;5.60;5.23;;;;;;;;;;5053145;28;20527;-44
2023/09/04 12:21:49;;;;;;;5.10;4.70;;;;;;;;;;5053001;28;20464;-44
2023/09/04 12:24:17;;;;;;;6.07;5.70;;;;;;;;;;5052751;28;20475;-43
2023/09/04 12:26:48;;;;;;;5.23;5.00;;;;;;;;;;5052760;28;20459;-43
2023/09/04 12:29:16;;;;;;;5.70;5.40;;;;;;;;;;5052751;28;20470;-42
2023/09/04 12:31:43;;;;;;;6.30;5.90;;;;;;;;;;5054158;28;20990;-44
2023/09/04 12:34:11;;;;;;;6.03;5.63;;;;;;;;;;5054190;28;20558;-45
2023/09/04 12:36:39;;;;;;;5.70;5.30;;;;;;;;;;5054538;28;20465;-45
2023/09/04 12:39:06;;;;;;;5.60;5.13;;;;;;;;;;5055192;28;20865;-42
2023/09/04 12:41:35;;;;;;;4.97;4.70;;;;;;;;;;5054688;28;20942;-46
2023/09/04 12:44:04;;;;;;;5.13;4.83;;;;;;;;;;5053901;28;20469;-41
2023/09/04 12:46:33;;;;;;;6.03;5.63;;;;;;;;;;5054258;28;20454;-44
2023/09/04 12:49:00;;;;;;;5.43;5.10;;;;;;;;;;5054555;28;20462;-41
2023/09/04 12:51:28;;;;;;;5.90;5.47;;;;;;;;;;5054612;28;20435;-44
2023/09/04 12:53:55;;;;;;;5.67;5.27;;;;;;;;;;5054457;28;20537;-44
2023/09/04 12:56:23;;;;;;;6.50;6.10;;;;;;;;;;5053826;28;21029;-48
2023/09/04 12:58:50;;;;;;;6.03;5.60;;;;;;;;;;5054722;28;20480;-45
2023/09/04 13:01:19;;;;;;;5.77;5.47;;;;;;;;;;5054168;28;20441;-42
2023/09/04 13:03:46;;;;;;;4.87;4.57;;;;;;;;;;5054407;28;20450;-44
2023/09/04 13:06:14;;;;;;;4.20;4.00;;;;;;;;;;5054151;28;20821;-42
2023/09/04 13:08:41;;;;;;;5.30;4.90;;;;;;;;;;5054128;28;20433;-46
2023/09/04 13:11:09;;;;;;;5.23;4.93;;;;;;;;;;5054511;28;20443;-41
2023/09/04 13:13:38;;;;;;;5.20;4.77;;;;;;;;;;5053936;28;20486;-48
2023/09/04 13:16:06;;;;;;;8.37;4.70;;;;;;;;;;5053817;28;20493;-44
2023/09/04 13:18:34;;;;;;;4.93;4.53;;;;;;;;;;5054223;28;20862;-44
2023/09/04 13:21:03;;;;;;;4.77;4.57;;;;;;;;;;5054133;28;20797;-42
2023/09/04 13:23:30;;;;;;;5.10;4.80;;;;;;;;;;5053288;28;20825;-43
2023/09/04 13:25:58;;;;;;;6.63;5.90;;;;;;;;;;5053847;28;20454;-42
2023/09/04 13:28:25;;;;;;;8.90;5.87;;;;;;;;;;5053477;28;20437;-42
2023/09/04 13:30:53;;;;;;;6.23;5.63;;;;;;;;;;5053712;28;20957;-42
2023/09/04 13:33:21;;;;;;;5.33;4.90;;;;;;;;;;5053391;28;20458;-45
2023/09/04 13:35:50;;;;;;;5.70;5.20;;;;;;;;;;5053120;28;20986;-42
2023/09/04 13:38:17;;;;;;;4.83;4.53;;;;;;;;;;5053920;28;20495;-42
2023/09/04 13:40:45;;;;;;;5.70;5.30;;;;;;;;;;5053333;28;20474;-42
2023/09/04 13:43:12;;;;;;;5.00;4.70;;;;;;;;;;5053164;28;20442;-42
2023/09/04 13:45:39;;;;;;;4.80;4.50;;;;;;;;;;5053008;28;20484;-42
2023/09/04 13:48:07;;;;;;;4.20;3.90;;;;;;;;;;5053265;28;20431;-42
2023/09/04 13:50:34;;;;;;;4.17;3.87;;;;;;;;;;5052798;28;20521;-42
2023/09/04 13:53:04;;;;;;;4.43;4.13;;;;;;;;;;5052955;28;20438;-44
2023/09/04 13:55:32;;;;;;;5.37;4.97;;;;;;;;;;5052379;28;20473;-44
2023/09/04 13:57:59;;;;;;;4.17;3.87;;;;;;;;;;5053184;28;20466;-42
2023/09/04 14:00:26;;;;;;;4.37;3.97;;;;;;;;;;5053168;28;20804;-45
2023/09/04 14:02:54;;;;;;;4.27;3.93;;;;;;;;;;5052755;28;20498;-50
2023/09/04 14:05:22;;;;;;;4.20;4.00;;;;;;;;;;5052324;28;20458;-45
2023/09/04 14:07:49;;;;;;;4.17;3.97;;;;;;;;;;5053230;28;20440;-45
2023/09/04 14:10:18;;;;;;;4.27;4.07;;;;;;;;;;5052421;28;20438;-44
2023/09/04 14:12:45;;;;;;;4.33;4.13;;;;;;;;;;5052836;28;20467;-44
2023/09/04 14:15:13;;;;;;;3.97;3.50;;;;;;;;;;5052607;28;20504;-42
2023/09/04 14:17:41;;;;;;;5.10;4.80;;;;;;;;;;5052888;28;20446;-41
2023/09/04 14:20:09;;;;;;;4.87;4.57;;;;;;;;;;5053007;28;20438;-46
2023/09/04 14:22:36;;;;;;;5.13;4.80;;;;;;;;;;5052831;28;20489;-44